Time;durP1;ratioP1;P1;durP2;ratioP2;P2;SDS_P1;SDS_P2;PMS_P1;PMS_P2;Temp;Humidity;BMP_temperature;BMP_pressure;BME280_temperature;BME280_humidity;BME280_pressure;Samples;Min_cycle;Max_cycle;Signal;HPM_P1;HPM_P2
2021/12/28 00:01:51;;;;;;;21.38;12.13;;;;;;;1.15;100.00;99024.09;6322424;28;20039;-88
2021/12/28 00:04:53;;;;;;;19.40;11.73;;;;;;;1.21;100.00;99021.13;6326844;28;20204;-87
2021/12/28 00:12:24;;;;;;;18.70;11.15;;;;;;;1.38;100.00;99020.84;6328236;28;20119;-87
2021/12/28 00:18:28;;;;;;;20.63;11.63;;;;;;;1.33;100.00;99020.34;6307611;28;20040;-87
2021/12/28 00:21:30;;;;;;;22.98;12.15;;;;;;;1.27;100.00;99015.66;6329284;28;20032;-88
2021/12/28 00:24:35;;;;;;;20.10;12.13;;;;;;;1.25;100.00;99004.72;6328020;28;20035;-87
2021/12/28 00:27:38;;;;;;;19.30;12.13;;;;;;;1.28;100.00;99001.97;6321676;28;20141;-87
2021/12/28 00:30:40;;;;;;;23.00;12.40;;;;;;;1.29;100.00;98998.50;6309792;28;20055;-87
2021/12/28 00:33:45;;;;;;;19.75;11.32;;;;;;;1.37;100.00;98998.03;6321560;28;20122;-87
2021/12/28 00:36:47;;;;;;;20.85;12.20;;;;;;;1.37;100.00;98992.94;6318929;28;20137;-87
2021/12/28 00:39:49;;;;;;;20.08;11.68;;;;;;;1.36;100.00;98991.28;6318484;28;20059;-87
2021/12/28 00:42:51;;;;;;;22.63;12.02;;;;;;;1.26;100.00;98981.66;6329620;28;20130;-87
2021/12/28 00:45:54;;;;;;;20.48;12.05;;;;;;;1.31;100.00;98976.28;6315624;28;20067;-88
2021/12/28 00:48:56;;;;;;;19.90;11.57;;;;;;;1.39;100.00;98983.41;6306199;28;20039;-88
2021/12/28 00:51:58;;;;;;;19.77;10.95;;;;;;;1.37;100.00;98980.19;6334542;28;20097;-87
2021/12/28 00:55:01;;;;;;;20.00;11.90;;;;;;;1.39;100.00;98979.16;6307322;28;20044;-87
2021/12/28 00:58:04;;;;;;;25.83;12.48;;;;;;;1.51;100.00;98975.75;6334222;28;20036;-87
2021/12/28 01:01:06;;;;;;;20.58;11.75;;;;;;;1.45;100.00;98965.19;6325852;28;20115;-88
2021/12/28 01:04:09;;;;;;;20.38;10.88;;;;;;;1.48;100.00;98968.31;6322375;28;20142;-87
2021/12/28 01:07:11;;;;;;;20.58;10.95;;;;;;;1.49;100.00;98971.69;6340578;28;20040;-88
2021/12/28 01:10:19;;;;;;;17.48;10.60;;;;;;;1.47;100.00;98964.16;6318946;28;20180;-87
2021/12/28 01:13:22;;;;;;;21.45;11.35;;;;;;;1.44;100.00;98963.53;6327819;28;20044;-88
2021/12/28 01:16:24;;;;;;;20.35;11.23;;;;;;;1.44;100.00;98969.47;6332864;28;20505;-87
2021/12/28 01:19:27;;;;;;;17.92;11.07;;;;;;;1.40;100.00;98970.59;6332347;28;20048;-88
2021/12/28 01:22:28;;;;;;;21.73;11.95;;;;;;;1.33;100.00;98963.44;6334515;28;20040;-88
2021/12/28 01:25:31;;;;;;;19.15;11.30;;;;;;;1.37;100.00;98962.34;6308562;28;20079;-88
2021/12/28 01:28:33;;;;;;;20.52;10.52;;;;;;;1.37;100.00;98963.16;6337952;28;20412;-88
2021/12/28 01:31:38;;;;;;;20.25;10.57;;;;;;;1.41;100.00;98963.75;6312476;28;20043;-88
2021/12/28 01:34:41;;;;;;;15.10;10.20;;;;;;;1.44;100.00;98956.72;6335378;28;20044;-88
2021/12/28 01:37:44;;;;;;;17.95;10.65;;;;;;;1.47;100.00;98956.50;6335234;28;20036;-88
2021/12/28 01:40:59;;;;;;;17.73;11.32;;;;;;;1.54;100.00;98956.09;6332406;28;20493;-88
2021/12/28 01:44:06;;;;;;;17.25;10.48;;;;;;;1.52;100.00;98956.22;6307106;28;20480;-88
2021/12/28 01:47:08;;;;;;;19.67;10.95;;;;;;;1.58;100.00;98949.88;6327217;28;20054;-87
2021/12/28 01:50:23;;;;;;;19.25;11.43;;;;;;;1.60;100.00;98945.50;6328748;28;20051;-88
2021/12/28 01:53:27;;;;;;;18.05;10.80;;;;;;;1.64;100.00;98937.53;6332517;28;20036;-88
2021/12/28 01:56:32;;;;;;;15.88;9.70;;;;;;;1.60;100.00;98925.91;6332529;28;20043;-88
2021/12/28 01:59:34;;;;;;;17.60;9.98;;;;;;;1.58;100.00;98914.19;6316872;28;20040;-88
2021/12/28 02:02:35;;;;;;;17.17;10.02;;;;;;;1.59;100.00;98918.34;6329690;28;20050;-88
2021/12/28 02:05:39;;;;;;;17.83;10.10;;;;;;;1.69;100.00;98932.09;6320297;28;20059;-88
2021/12/28 02:08:41;;;;;;;18.15;10.88;;;;;;;1.69;100.00;98934.66;6320965;28;20043;-88
2021/12/28 02:11:43;;;;;;;16.38;9.75;;;;;;;1.66;100.00;98935.66;6339919;28;20040;-88
2021/12/28 02:14:45;;;;;;;17.13;10.75;;;;;;;1.62;100.00;98933.47;6341557;28;20043;-88
2021/12/28 02:17:47;;;;;;;20.50;10.98;;;;;;;1.61;100.00;98931.81;6336244;28;20168;-88
2021/12/28 02:20:49;;;;;;;16.95;11.07;;;;;;;1.62;100.00;98933.47;6329757;28;20066;-88
2021/12/28 02:23:52;;;;;;;16.95;9.82;;;;;;;1.69;100.00;98952.50;6323701;28;20116;-88
2021/12/28 02:26:54;;;;;;;18.25;10.65;;;;;;;1.69;100.00;98955.06;6340802;28;20477;-88
2021/12/28 02:29:56;;;;;;;17.55;10.18;;;;;;;1.72;100.00;98944.66;6336732;28;20035;-88
2021/12/28 02:32:59;;;;;;;17.98;10.68;;;;;;;1.82;100.00;98940.56;6304081;28;20063;-88
2021/12/28 02:36:03;;;;;;;16.33;9.77;;;;;;;1.84;100.00;98932.78;6323052;28;20048;-88
2021/12/28 02:39:05;;;;;;;17.38;9.30;;;;;;;1.83;100.00;98924.31;6337246;28;20040;-87
2021/12/28 02:42:07;;;;;;;15.52;9.20;;;;;;;1.84;100.00;98925.97;6329053;28;20032;-88
2021/12/28 02:45:25;;;;;;;18.63;10.48;;;;;;;1.79;100.00;98917.81;6338602;28;20047;-88
2021/12/28 02:48:28;;;;;;;16.20;9.80;;;;;;;1.85;100.00;98911.47;6328792;28;20040;-88
2021/12/28 02:51:30;;;;;;;15.23;9.15;;;;;;;1.82;100.00;98920.16;6337164;28;20036;-88
2021/12/28 02:54:32;;;;;;;15.82;9.63;;;;;;;1.88;100.00;98906.97;6335424;28;20036;-88
2021/12/28 02:57:35;;;;;;;15.02;9.38;;;;;;;1.87;100.00;98900.25;6332417;28;20480;-88
2021/12/28 03:00:58;;;;;;;18.10;9.80;;;;;;;1.86;100.00;98898.63;6333627;28;20038;-88
2021/12/28 03:04:04;;;;;;;16.73;9.30;;;;;;;1.92;100.00;98897.38;6331857;28;20059;-88
2021/12/28 03:07:06;;;;;;;16.27;9.23;;;;;;;1.92;100.00;98900.75;6330445;28;20149;-88
2021/12/28 03:10:08;;;;;;;15.15;9.02;;;;;;;1.89;100.00;98900.16;6335324;28;20044;-88
2021/12/28 03:13:16;;;;;;;16.42;9.80;;;;;;;1.88;100.00;98884.00;6301628;28;20040;-88
2021/12/28 03:16:20;;;;;;;17.15;9.85;;;;;;;1.84;100.00;98885.16;6317272;28;20048;-88
2021/12/28 03:19:22;;;;;;;14.07;9.90;;;;;;;1.83;100.00;98890.34;6329427;28;20040;-88
2021/12/28 03:22:24;;;;;;;16.45;9.73;;;;;;;1.81;100.00;98882.78;6333304;28;20051;-88
2021/12/28 03:25:26;;;;;;;15.43;9.68;;;;;;;1.88;100.00;98867.88;6331355;28;20108;-88
2021/12/28 03:28:30;;;;;;;14.70;8.77;;;;;;;1.90;100.00;98866.03;6331806;28;20052;-88
2021/12/28 03:31:37;;;;;;;13.73;8.77;;;;;;;1.93;100.00;98869.19;6335559;28;20404;-88
2021/12/28 03:34:39;;;;;;;14.00;8.63;;;;;;;1.89;100.00;98859.34;6326739;28;20070;-88
2021/12/28 03:37:41;;;;;;;14.30;8.23;;;;;;;1.89;100.00;98847.38;6323549;28;20040;-88
2021/12/28 03:40:44;;;;;;;15.15;9.27;;;;;;;1.94;100.00;98852.97;6354194;28;20047;-88
2021/12/28 03:43:49;;;;;;;10.25;7.85;;;;;;;1.94;100.00;98850.41;6344930;28;20406;-88
2021/12/28 03:46:51;;;;;;;13.50;8.65;;;;;;;1.89;100.00;98834.63;6318693;28;20036;-88
2021/12/28 03:49:53;;;;;;;14.80;8.40;;;;;;;1.90;100.00;98836.25;6311009;28;20040;-88
2021/12/28 03:52:56;;;;;;;14.00;7.97;;;;;;;1.99;100.00;98831.41;6321577;28;20114;-88
2021/12/28 03:55:58;;;;;;;12.20;8.02;;;;;;;1.90;100.00;98828.59;6335722;28;20039;-88
2021/12/28 03:58:59;;;;;;;14.48;8.13;;;;;;;1.93;100.00;98830.09;6294763;28;20046;-88
2021/12/28 04:02:02;;;;;;;13.60;8.68;;;;;;;1.91;100.00;98827.69;6331126;28;20496;-88
2021/12/28 04:05:04;;;;;;;14.15;7.93;;;;;;;1.98;100.00;98828.03;6319113;28;20500;-88
2021/12/28 04:08:06;;;;;;;13.48;8.57;;;;;;;1.99;100.00;98823.75;6321975;28;20036;-88
2021/12/28 04:11:15;;;;;;;13.38;8.20;;;;;;;1.98;100.00;98822.13;6309122;28;20051;-88
2021/12/28 04:14:18;;;;;;;11.40;8.00;;;;;;;1.91;100.00;98832.78;6318652;28;20043;-88
2021/12/28 04:17:20;;;;;;;14.20;8.43;;;;;;;1.89;100.00;98823.63;6328523;28;20035;-88
2021/12/28 04:20:23;;;;;;;13.30;8.82;;;;;;;1.84;100.00;98821.38;6338498;28;20721;-88
2021/12/28 04:23:25;;;;;;;11.18;8.00;;;;;;;1.79;100.00;98822.59;6315030;28;20032;-88
2021/12/28 04:26:28;;;;;;;12.18;7.93;;;;;;;1.74;100.00;98820.41;6313984;28;20047;-88
2021/12/28 04:29:30;;;;;;;12.88;8.38;;;;;;;1.76;100.00;98821.09;6317498;28;20028;-88
2021/12/28 04:32:32;;;;;;;14.25;8.38;;;;;;;1.77;100.00;98827.03;6331427;28;20039;-88
2021/12/28 04:35:34;;;;;;;13.50;8.25;;;;;;;1.77;100.00;98819.38;6297305;28;20047;-88
2021/12/28 04:38:37;;;;;;;12.68;7.93;;;;;;;1.79;100.00;98818.34;6308119;28;20032;-88
2021/12/28 04:41:40;;;;;;;13.73;8.27;;;;;;;1.76;100.00;98815.97;6337968;28;20032;-88
2021/12/28 04:44:43;;;;;;;12.35;8.43;;;;;;;1.72;100.00;98817.13;6321683;28;20677;-88
2021/12/28 04:47:45;;;;;;;13.05;8.13;;;;;;;1.70;100.00;98816.44;6316343;28;20384;-88
2021/12/28 04:50:47;;;;;;;14.15;8.50;;;;;;;1.68;100.00;98819.06;6295698;28;20810;-88
2021/12/28 04:53:53;;;;;;;13.70;8.48;;;;;;;1.73;100.00;98813.66;6304899;28;20070;-88
2021/12/28 04:56:55;;;;;;;11.73;8.18;;;;;;;1.75;100.00;98811.81;6298162;28;20431;-88
2021/12/28 04:59:57;;;;;;;13.75;8.48;;;;;;;1.79;100.00;98815.78;6331257;28;20044;-88
2021/12/28 05:02:59;;;;;;;16.17;9.95;;;;;;;1.79;100.00;98817.50;6315750;28;20040;-88
2021/12/28 05:06:02;;;;;;;12.93;8.57;;;;;;;1.79;100.00;98810.69;6309360;28;20048;-88
2021/12/28 05:09:08;;;;;;;15.18;8.80;;;;;;;1.73;100.00;98804.25;6314612;28;20051;-88
2021/12/28 05:12:10;;;;;;;16.42;9.40;;;;;;;1.74;100.00;98794.91;6324397;28;20122;-88
2021/12/28 05:15:12;;;;;;;14.30;8.45;;;;;;;1.74;100.00;98789.78;6313939;28;20074;-88
2021/12/28 05:18:15;;;;;;;15.45;8.50;;;;;;;1.71;100.00;98785.72;6321771;28;20068;-88
2021/12/28 05:21:17;;;;;;;15.85;9.65;;;;;;;1.66;100.00;98779.28;6330038;28;20040;-88
2021/12/28 05:24:19;;;;;;;16.05;9.10;;;;;;;1.61;100.00;98781.34;6337934;28;20044;-88
2021/12/28 05:27:21;;;;;;;14.07;8.27;;;;;;;1.56;100.00;98778.31;6321968;28;20422;-88
2021/12/28 05:30:22;;;;;;;13.32;8.32;;;;;;;1.50;100.00;98775.28;6329923;28;20068;-88
2021/12/28 05:33:25;;;;;;;18.00;9.15;;;;;;;1.44;100.00;98777.44;6307006;28;20484;-88
2021/12/28 05:36:27;;;;;;;15.40;9.15;;;;;;;1.36;100.00;98772.06;6309801;28;20040;-88
2021/12/28 05:39:29;;;;;;;14.68;8.27;;;;;;;1.25;100.00;98778.72;6337899;28;20055;-88
2021/12/28 05:42:30;;;;;;;15.43;8.88;;;;;;;1.17;100.00;98775.88;6309620;28;20050;-88
2021/12/28 05:45:32;;;;;;;15.98;8.73;;;;;;;1.12;100.00;98767.75;6313114;28;20421;-88
2021/12/28 05:48:34;;;;;;;16.73;8.70;;;;;;;1.08;100.00;98769.66;6330726;28;20492;-88
2021/12/28 05:51:36;;;;;;;15.20;9.15;;;;;;;1.04;100.00;98769.97;6330797;28;20032;-88
2021/12/28 05:54:38;;;;;;;16.60;8.88;;;;;;;0.98;100.00;98771.22;6327134;28;20408;-88
2021/12/28 05:57:40;;;;;;;16.35;9.68;;;;;;;0.92;100.00;98773.34;6336190;28;21110;-88
2021/12/28 06:00:43;;;;;;;14.85;8.90;;;;;;;0.88;100.00;98759.22;6340994;28;20070;-88
2021/12/28 06:03:45;;;;;;;16.67;9.13;;;;;;;0.96;100.00;98762.84;6329013;28;20044;-88
2021/12/28 06:06:47;;;;;;;17.27;9.40;;;;;;;0.95;100.00;98763.78;6321680;28;20055;-88
2021/12/28 06:09:57;;;;;;;20.10;9.68;;;;;;;0.99;100.00;98751.66;6316466;28;20359;-88
2021/12/28 06:12:59;;;;;;;16.58;9.88;;;;;;;1.20;100.00;98747.63;6300834;28;20044;-88
2021/12/28 06:16:02;;;;;;;17.65;9.00;;;;;;;1.17;100.00;98747.84;6316839;28;20468;-88
2021/12/28 06:19:04;;;;;;;15.20;9.77;;;;;;;1.19;100.00;98746.03;6316212;28;20051;-88
2021/12/28 06:22:06;;;;;;;18.10;9.57;;;;;;;1.04;100.00;98750.44;6331851;28;20055;-88
2021/12/28 06:25:08;;;;;;;15.25;9.20;;;;;;;0.89;100.00;98736.16;6317319;28;20059;-88
2021/12/28 06:28:10;;;;;;;16.70;8.85;;;;;;;0.85;100.00;98737.31;6324483;28;20100;-88
2021/12/28 06:31:12;;;;;;;17.25;9.25;;;;;;;0.75;100.00;98728.66;6311655;28;20738;-88
2021/12/28 06:34:14;;;;;;;17.35;9.30;;;;;;;0.72;100.00;98731.41;6344053;28;20043;-88
2021/12/28 06:37:16;;;;;;;17.65;8.82;;;;;;;0.69;100.00;98729.06;6309963;28;20044;-88
2021/12/28 06:40:32;;;;;;;18.98;9.43;;;;;;;0.64;100.00;98731.91;6311354;28;20044;-88
2021/12/28 06:43:33;;;;;;;18.52;8.93;;;;;;;0.59;100.00;98732.22;6340726;28;20412;-88
2021/12/28 06:46:37;;;;;;;16.50;8.98;;;;;;;0.55;100.00;98730.00;6337968;28;20579;-88
2021/12/28 06:49:39;;;;;;;17.08;8.98;;;;;;;0.54;100.00;98744.44;6308748;28;20158;-88
2021/12/28 06:52:42;;;;;;;14.77;8.63;;;;;;;0.53;100.00;98737.72;6309600;28;20052;-88
2021/12/28 06:55:50;;;;;;;19.58;8.90;;;;;;;0.58;100.00;98739.97;6327649;28;20048;-88
2021/12/28 06:58:52;;;;;;;20.20;10.10;;;;;;;0.61;100.00;98745.66;6342978;28;20044;-88
2021/12/28 07:01:54;;;;;;;17.85;8.70;;;;;;;0.58;100.00;98734.88;6341602;28;20040;-88
2021/12/28 07:04:56;;;;;;;21.75;8.85;;;;;;;0.58;100.00;98728.06;6336467;28;20056;-88
2021/12/28 07:07:59;;;;;;;23.60;9.27;;;;;;;0.60;100.00;98731.31;6331762;28;20040;-88
2021/12/28 07:11:01;;;;;;;21.25;10.15;;;;;;;0.61;100.00;98729.59;6331375;28;20404;-88
2021/12/28 07:14:03;;;;;;;17.92;9.10;;;;;;;0.58;100.00;98728.06;6310649;28;20036;-88
2021/12/28 07:17:05;;;;;;;14.55;8.05;;;;;;;0.61;100.00;98730.38;6304985;28;20040;-88
2021/12/28 07:20:08;;;;;;;18.85;9.48;;;;;;;0.70;100.00;98728.97;6342247;28;20043;-88
2021/12/28 07:23:11;;;;;;;18.08;8.80;;;;;;;0.77;100.00;98727.66;6308834;28;20062;-88
2021/12/28 07:26:13;;;;;;;19.98;9.88;;;;;;;0.85;100.00;98738.13;6321074;28;20048;-88
2021/12/28 07:29:15;;;;;;;18.60;8.93;;;;;;;0.92;100.00;98740.25;6311170;28;20044;-88
2021/12/28 07:32:18;;;;;;;20.27;10.07;;;;;;;1.00;100.00;98738.00;6328102;28;20181;-88
2021/12/28 07:35:20;;;;;;;20.88;9.57;;;;;;;1.01;100.00;98735.34;6329631;28;20048;-88
2021/12/28 07:38:23;;;;;;;19.17;9.50;;;;;;;1.03;100.00;98725.84;6308305;28;20723;-88
2021/12/28 07:41:25;;;;;;;23.48;9.65;;;;;;;1.03;100.00;98719.94;6327175;28;20036;-88
2021/12/28 07:44:27;;;;;;;21.02;9.95;;;;;;;1.10;100.00;98721.16;6313838;28;20043;-88
2021/12/28 07:47:29;;;;;;;20.25;9.63;;;;;;;1.17;100.00;98716.44;6333330;28;20613;-88
2021/12/28 07:50:31;;;;;;;20.20;9.90;;;;;;;1.23;100.00;98713.47;6332159;28;20051;-88
2021/12/28 07:53:33;;;;;;;20.60;10.13;;;;;;;1.26;100.00;98716.63;6328176;28;20040;-88
2021/12/28 07:56:37;;;;;;;21.00;9.50;;;;;;;1.20;100.00;98719.59;6316341;28;20036;-88
2021/12/28 07:59:39;;;;;;;15.40;8.85;;;;;;;1.14;100.00;98724.31;6330942;28;20051;-88
2021/12/28 08:02:51;;;;;;;23.48;10.07;;;;;;;1.16;100.00;98723.28;6318151;28;20040;-88
2021/12/28 08:05:54;;;;;;;20.50;9.10;;;;;;;1.26;100.00;98718.34;6334474;28;20705;-88
2021/12/28 08:08:56;;;;;;;22.85;10.13;;;;;;;1.38;100.00;98709.84;6339589;28;20043;-88
2021/12/28 08:11:58;;;;;;;21.58;9.50;;;;;;;1.36;100.00;98714.25;6303469;28;20051;-88
2021/12/28 08:15:02;;;;;;;19.85;9.38;;;;;;;1.47;100.00;98711.75;6332042;28;20506;-88
2021/12/28 08:18:07;;;;;;;18.48;9.20;;;;;;;1.59;100.00;98709.25;6320284;28;20055;-88
2021/12/28 08:21:11;;;;;;;24.02;9.82;;;;;;;1.61;100.00;98712.50;6315851;28;20150;-88
2021/12/28 08:24:13;;;;;;;21.10;8.88;;;;;;;1.61;100.00;98713.31;6329874;28;20031;-88
2021/12/28 08:27:16;;;;;;;21.27;9.73;;;;;;;1.67;100.00;98706.97;6338988;28;20082;-88
2021/12/28 08:30:19;;;;;;;21.67;10.13;;;;;;;1.76;100.00;98702.94;6354275;28;20024;-88
2021/12/28 08:33:21;;;;;;;16.08;8.98;;;;;;;1.85;100.00;98703.09;6340276;28;20063;-88
2021/12/28 08:36:23;;;;;;;18.90;9.45;;;;;;;1.93;100.00;98697.44;6329771;28;20043;-88
2021/12/28 08:39:25;;;;;;;19.33;8.82;;;;;;;2.01;100.00;98691.78;6335983;28;20047;-88
2021/12/28 08:42:27;;;;;;;25.45;9.75;;;;;;;2.07;100.00;98691.34;6336074;28;20043;-88
2021/12/28 08:45:29;;;;;;;20.95;9.10;;;;;;;2.19;100.00;98690.44;6332735;28;20063;-88
2021/12/28 08:48:31;;;;;;;18.20;8.32;;;;;;;2.30;100.00;98693.00;6316779;28;20050;-88
2021/12/28 08:51:33;;;;;;;18.92;8.70;;;;;;;2.43;100.00;98689.53;6312005;28;20416;-88
2021/12/28 08:54:36;;;;;;;16.23;8.95;;;;;;;2.55;100.00;98681.75;6332005;28;20032;-88
2021/12/28 08:57:38;;;;;;;16.08;8.93;;;;;;;2.63;100.00;98680.34;6339415;28;20059;-88
2021/12/28 09:00:40;;;;;;;17.55;8.48;;;;;;;2.55;100.00;98676.66;6311980;28;20113;-89
2021/12/28 09:03:55;;;;;;;20.35;8.68;;;;;;;2.53;100.00;98675.13;6338588;28;20109;-88
2021/12/28 09:06:56;;;;;;;13.45;7.75;;;;;;;2.59;100.00;98672.94;6343591;28;20108;-88
2021/12/28 09:10:00;;;;;;;17.70;7.65;;;;;;;2.75;100.00;98670.00;6309234;28;20042;-88
2021/12/28 09:13:02;;;;;;;17.13;7.40;;;;;;;3.00;100.00;98666.38;6338152;28;20044;-88
2021/12/28 09:16:04;;;;;;;15.57;7.30;;;;;;;3.16;100.00;98667.75;6322020;28;20039;-88
2021/12/28 09:19:06;;;;;;;18.00;7.43;;;;;;;3.29;100.00;98673.53;6342340;28;20047;-88
2021/12/28 09:22:10;;;;;;;17.63;7.22;;;;;;;3.41;100.00;98664.09;6324472;28;20043;-88
2021/12/28 09:25:14;;;;;;;19.83;8.77;;;;;;;3.49;100.00;98658.34;6339027;28;20091;-88
2021/12/28 09:28:17;;;;;;;14.52;7.68;;;;;;;3.57;100.00;98661.09;6343389;28;20345;-88
2021/12/28 09:31:19;;;;;;;13.00;7.32;;;;;;;3.66;100.00;98661.19;6339795;28;20168;-88
2021/12/28 09:34:22;;;;;;;12.82;6.97;;;;;;;3.70;100.00;98646.38;6332018;28;20047;-88
2021/12/28 09:37:33;;;;;;;12.90;7.30;;;;;;;3.71;100.00;98654.91;6339632;28;20063;-88
2021/12/28 09:40:36;;;;;;;15.23;7.03;;;;;;;3.72;100.00;98649.63;6342625;28;20035;-88
2021/12/28 09:43:38;;;;;;;16.75;6.90;;;;;;;3.70;100.00;98651.50;6313568;28;20042;-88
2021/12/28 09:46:41;;;;;;;15.32;7.07;;;;;;;3.56;100.00;98637.28;6339426;28;20043;-88
2021/12/28 09:49:44;;;;;;;13.48;6.55;;;;;;;3.48;100.00;98644.75;6314902;28;20035;-88
2021/12/28 09:52:48;;;;;;;13.57;6.15;;;;;;;3.33;100.00;98653.63;6317992;28;20038;-88
2021/12/28 09:55:50;;;;;;;13.18;5.75;;;;;;;3.19;100.00;98650.44;6321578;28;20527;-88
2021/12/28 09:58:52;;;;;;;13.45;6.57;;;;;;;3.18;100.00;98641.16;6310422;28;20348;-88
2021/12/28 10:01:55;;;;;;;16.98;6.72;;;;;;;3.23;100.00;98640.78;6338663;28;20036;-88
2021/12/28 10:05:04;;;;;;;14.65;5.45;;;;;;;3.21;100.00;98637.53;6334778;28;20185;-88
2021/12/28 10:08:06;;;;;;;12.40;5.43;;;;;;;3.30;100.00;98628.31;6321114;28;20043;-88
2021/12/28 10:11:08;;;;;;;13.48;6.90;;;;;;;3.42;100.00;98612.00;6334129;28;20039;-88
2021/12/28 10:14:27;;;;;;;12.60;6.28;;;;;;;3.64;100.00;98616.19;6335313;28;20123;-88
2021/12/28 10:17:31;;;;;;;11.65;5.82;;;;;;;3.85;100.00;98616.19;6315358;28;20040;-88
2021/12/28 10:20:53;;;;;;;14.10;6.38;;;;;;;3.96;100.00;98608.44;6340003;28;20062;-88
2021/12/28 10:23:57;;;;;;;10.73;5.70;;;;;;;4.13;100.00;98606.25;6339659;28;20035;-88
2021/12/28 10:27:19;;;;;;;13.73;6.30;;;;;;;4.15;100.00;98597.50;6337343;28;20126;-88
2021/12/28 10:30:27;;;;;;;15.05;6.43;;;;;;;4.19;100.00;98592.91;6336789;28;20103;-88
2021/12/28 10:33:33;;;;;;;9.32;5.47;;;;;;;4.18;100.00;98589.56;6340507;28;20437;-88
2021/12/28 10:36:37;;;;;;;12.75;5.75;;;;;;;4.24;100.00;98585.66;6338033;28;20032;-88
2021/12/28 10:39:51;;;;;;;9.02;4.90;;;;;;;4.37;100.00;98577.75;6341078;28;20036;-88
2021/12/28 10:43:27;;;;;;;13.13;6.05;;;;;;;4.48;100.00;98578.47;6339538;28;20040;-88
2021/12/28 10:46:29;;;;;;;14.48;5.40;;;;;;;4.53;100.00;98572.97;6315996;28;20055;-88
2021/12/28 10:49:39;;;;;;;9.43;4.85;;;;;;;4.50;100.00;98568.91;6340002;28;20496;-88
2021/12/28 10:52:49;;;;;;;12.38;5.05;;;;;;;4.44;100.00;98564.28;6323362;28;20038;-88
2021/12/28 10:55:55;;;;;;;12.20;5.22;;;;;;;4.49;100.00;98566.47;6310626;28;20042;-88
2021/12/28 10:59:01;;;;;;;15.10;5.72;;;;;;;4.47;100.00;98564.06;6339334;28;20922;-88
2021/12/28 11:02:04;;;;;;;10.35;5.10;;;;;;;4.45;100.00;98565.13;6333091;28;20114;-88
2021/12/28 11:05:33;;;;;;;10.65;5.32;;;;;;;4.44;100.00;98559.16;6309580;28;20193;-88
2021/12/28 11:08:35;;;;;;;12.63;5.97;;;;;;;4.57;100.00;98548.69;6314099;28;20750;-88
2021/12/28 11:11:40;;;;;;;10.95;5.32;;;;;;;4.67;100.00;98548.69;6317500;28;20074;-88
2021/12/28 11:14:42;;;;;;;12.23;5.75;;;;;;;4.63;100.00;98540.47;6296312;28;20048;-88
2021/12/28 11:17:46;;;;;;;8.38;5.78;;;;;;;4.66;100.00;98537.63;6318810;28;20039;-88
2021/12/28 11:20:50;;;;;;;9.25;4.95;;;;;;;4.69;100.00;98532.25;6329593;28;20409;-88
2021/12/28 11:23:54;;;;;;;8.98;4.80;;;;;;;4.67;100.00;98526.47;6325830;28;20036;-88
2021/12/28 11:26:56;;;;;;;10.18;5.43;;;;;;;4.77;100.00;98513.66;6324416;28;20067;-88
2021/12/28 11:30:17;;;;;;;8.90;5.40;;;;;;;4.83;100.00;98507.97;6327863;28;20055;-88
2021/12/28 11:33:20;;;;;;;9.55;4.85;;;;;;;4.82;100.00;98516.63;6307614;28;20124;-88
2021/12/28 11:36:28;;;;;;;6.80;4.57;;;;;;;4.94;100.00;98507.03;6326668;28;20054;-88
2021/12/28 11:39:34;;;;;;;10.73;4.90;;;;;;;5.04;100.00;98491.66;6337789;28;20042;-88
2021/12/28 11:42:36;;;;;;;8.18;4.65;;;;;;;5.18;100.00;98493.81;6338014;28;20117;-88
2021/12/28 11:45:38;;;;;;;6.43;4.53;;;;;;;5.29;100.00;98491.09;6310737;28;20035;-88
2021/12/28 11:48:40;;;;;;;8.20;4.57;;;;;;;5.40;100.00;98495.25;6337748;28;20666;-88
2021/12/28 11:51:45;;;;;;;9.52;4.90;;;;;;;5.56;100.00;98494.66;6314504;28;20050;-88
2021/12/28 11:54:50;;;;;;;8.23;4.30;;;;;;;5.62;100.00;98489.00;6312710;28;20188;-88
2021/12/28 11:57:53;;;;;;;8.68;4.35;;;;;;;5.81;100.00;98472.69;6336466;28;20373;-88
2021/12/28 12:00:55;;;;;;;7.57;4.05;;;;;;;5.93;100.00;98475.88;6317090;28;20043;-88
2021/12/28 12:03:57;;;;;;;6.20;4.07;;;;;;;6.12;100.00;98472.47;6308859;28;20040;-88
2021/12/28 12:07:22;;;;;;;8.30;4.22;;;;;;;6.29;100.00;98466.53;6315691;28;20047;-88
2021/12/28 12:10:29;;;;;;;7.30;3.80;;;;;;;6.27;100.00;98460.75;6337202;28;20052;-88
2021/12/28 12:13:32;;;;;;;6.22;4.15;;;;;;;6.28;100.00;98458.97;6321577;28;20043;-88
2021/12/28 12:16:40;;;;;;;11.40;4.85;;;;;;;6.20;100.00;98452.00;6335173;28;20038;-88
2021/12/28 12:19:49;;;;;;;7.03;3.90;;;;;;;6.16;100.00;98446.34;6337262;28;20043;-88
2021/12/28 12:23:14;;;;;;;7.30;3.83;;;;;;;6.11;100.00;98447.72;6297403;28;20051;-88
2021/12/28 12:26:25;;;;;;;7.07;3.85;;;;;;;5.99;100.00;98447.13;6336448;28;20044;-88
2021/12/28 12:29:26;;;;;;;;;;;;;;;5.90;100.00;98438.47;6338326;28;20058;-88
2021/12/28 12:33:06;;;;;;;6.50;3.63;;;;;;;5.81;100.00;98445.28;6333320;28;19923;-88
2021/12/28 12:36:37;;;;;;;5.90;3.65;;;;;;;5.85;100.00;98439.84;6332681;28;20052;-88
2021/12/28 12:39:39;;;;;;;9.18;4.97;;;;;;;5.91;100.00;98436.69;6333186;28;20109;-88
2021/12/28 12:42:41;;;;;;;5.88;4.07;;;;;;;5.87;100.00;98437.97;6343506;28;20493;-88
2021/12/28 12:45:56;;;;;;;8.13;4.75;;;;;;;5.90;100.00;98435.91;6320234;28;20051;-88
2021/12/28 12:49:03;;;;;;;5.65;3.88;;;;;;;5.86;100.00;98418.34;6343886;28;20043;-88
2021/12/28 12:52:17;;;;;;;7.57;3.95;;;;;;;5.84;100.00;98415.94;6337758;28;20067;-88
2021/12/28 12:55:34;;;;;;;6.50;4.28;;;;;;;5.74;100.00;98399.75;6325635;28;20043;-88
2021/12/28 12:58:41;;;;;;;6.85;4.63;;;;;;;5.58;100.00;98385.78;6339480;28;20039;-88
2021/12/28 13:01:46;;;;;;;6.22;4.43;;;;;;;5.51;100.00;98378.81;6336956;28;20176;-88
2021/12/28 13:04:52;;;;;;;9.02;4.50;;;;;;;5.39;100.00;98365.34;6334650;28;20044;-88
2021/12/28 13:07:54;;;;;;;7.35;4.32;;;;;;;5.32;100.00;98359.19;6341396;28;20146;-88
2021/12/28 13:10:57;;;;;;;6.35;4.43;;;;;;;5.36;100.00;98355.38;6318736;28;20184;-88
2021/12/28 13:13:59;;;;;;;7.13;4.53;;;;;;;5.44;100.00;98339.25;6343921;28;20063;-88
2021/12/28 13:17:14;;;;;;;6.97;4.55;;;;;;;5.49;100.00;98334.50;6321659;28;20039;-88
2021/12/28 13:20:21;;;;;;;9.35;4.18;;;;;;;5.53;100.00;98328.16;6321349;28;20040;-88
2021/12/28 13:23:23;;;;;;;6.13;4.45;;;;;;;5.54;100.00;98322.06;6314286;28;20584;-88
2021/12/28 13:26:26;;;;;;;6.95;4.20;;;;;;;5.60;100.00;98312.03;6343394;28;20047;-88
2021/12/28 13:29:30;;;;;;;4.97;3.60;;;;;;;5.61;100.00;98323.94;6340280;28;20095;-88
2021/12/28 13:32:36;;;;;;;7.57;4.30;;;;;;;5.53;100.00;98323.81;6340722;28;20051;-88
2021/12/28 13:35:41;;;;;;;8.80;4.05;;;;;;;5.43;100.00;98333.34;6338136;28;20120;-88
2021/12/28 13:38:43;;;;;;;9.48;5.13;;;;;;;5.26;100.00;98332.31;6341529;28;20050;-88
2021/12/28 13:41:53;;;;;;;5.88;3.70;;;;;;;5.23;100.00;98321.56;6340931;28;20043;-88
2021/12/28 13:44:55;;;;;;;9.40;4.38;;;;;;;5.22;100.00;98310.50;6338264;28;20039;-88
2021/12/28 13:48:22;;;;;;;6.72;4.30;;;;;;;5.26;100.00;98311.81;6337246;28;20484;-88
2021/12/28 13:51:24;;;;;;;5.88;3.60;;;;;;;5.23;100.00;98309.53;6339696;28;20054;-88
2021/12/28 13:54:26;;;;;;;5.38;3.45;;;;;;;5.16;100.00;98303.34;6347885;28;20040;-88
2021/12/28 13:57:28;;;;;;;6.28;4.38;;;;;;;4.97;100.00;98299.13;6325057;28;20043;-88
2021/12/28 14:00:35;;;;;;;8.57;3.88;;;;;;;4.89;100.00;98286.97;6340789;28;20036;-88
2021/12/28 14:03:39;;;;;;;9.10;3.88;;;;;;;4.85;100.00;98288.22;6342053;28;20050;-88
2021/12/28 14:06:55;;;;;;;4.95;3.55;;;;;;;4.73;100.00;98284.22;6341668;28;20126;-88
2021/12/28 14:09:58;;;;;;;7.25;4.25;;;;;;;4.70;100.00;98279.38;6343578;28;20051;-89
2021/12/28 14:13:16;;;;;;;5.63;3.90;;;;;;;4.63;100.00;98268.88;6337044;28;20047;-89
2021/12/28 14:16:18;;;;;;;5.68;4.07;;;;;;;4.58;100.00;98263.34;6316682;28;20043;-89
2021/12/28 14:19:22;;;;;;;5.90;4.20;;;;;;;4.56;100.00;98264.44;6313939;28;20039;-88
2021/12/28 14:22:26;;;;;;;5.22;3.90;;;;;;;4.51;100.00;98265.66;6336870;28;20035;-89
2021/12/28 14:25:29;;;;;;;5.93;3.60;;;;;;;4.58;100.00;98260.00;6339303;28;20759;-89
2021/12/28 14:28:32;;;;;;;5.78;3.70;;;;;;;4.59;100.00;98251.34;6338727;28;20047;-89